Cayey, Puerto Rico

4:50 AM AST on February 07, 2016 (GMT -0400)
Cayey | | Change Station
CLOSE
Current Station
Personal Weather Station
Location: Cayey, PR
Elevation: 1299 ft
Nearby Weather Stations

Elev 1299 ft 18.12 °N, 66.16 °W | Updated 5 seconds ago

Overcast
Overcast
68.0 °F
Feels Like 68.0 °F
N
4.0
Wind Variable Wind from SSW
Gusts 15.0 mph

Today
High -- | Low -- °F
--% Chance of Precip.
Yesterday
High -- | Low -- °F
Precip. -- in
Pressure 30.02 in
Visibility 10.0 miles
Clouds Scattered Clouds 1900 ft
Mostly Cloudy 2600 ft
Overcast 7500 ft
Dew Point 52 °F
Humidity 57%
Rainfall 0.00 in
Snow Depth Not available.
6:55 AM 6:21 PM
Waning Crescent, 2% visible
SPECI TJNR 070823Z AUTO 00000KT 10SM SCT019 BKN026 OVC075 23/22 A3002 RMK AO2 RAE0757 P0000 T02280222 $
Pressure 30.02 in
Visibility 10.0 miles
Clouds Scattered Clouds 1900 ft
Mostly Cloudy 2600 ft
Overcast 7500 ft
Dew Point 52 °F
Humidity 57%
Rainfall 0.00 in
Snow Depth Not available.
6:55 AM 6:21 PM
Waning Crescent, 2% visible
SPECI TJNR 070823Z AUTO 00000KT 10SM SCT019 BKN026 OVC075 23/22 A3002 RMK AO2 RAE0757 P0000 T02280222 $

10-Day Weather Forecast

Almanac

Astronomy

Feb. 07, 2016 Rise Set
Actual Time
Civil Twilight
Nautical Twilight
Astronomical Twilight
Moon
Length of Visible Light
Length of Day
Tomorrow will be .
, % of the Moon is Illuminated

Today's Extremes

Country Highs Country Lows

Community

WunderPhotos

Upload Photos

1,891,171 photos uploaded!

WunderBlog® & News

Nearby

Air Quality

  Air Quality AQ Index Pollutant
Not available.

Snow Depth

Station Depth Elevation

Earthquake Activity

City Distance Mag. Time & Date
Minimum magnitude displayed is 2.5.

Coastal Water Temperatures

Place Temperature

Stations

Nearby Weather Stations

Station Location Temp. Windchill Dew Point Humidity Wind Precip. Elev Updated Type